Terminal Aerodrome Forecast
Issued by NWS

Home | Current Version | Previous Version | Text Only | Print | Product List | Glossary On
Versions: 1 2 3 4 5 6 7 8 9 10 11 12 13 14 15 16 17 18
406
FTUS41 KBTV 092321
TAFMSS
TAF
KMSS 092321Z 1000/1024 05008KT P6SM VCSH OVC015
     FM100600 04005KT 2SM -SN BR OVC018
     FM101500 VRB03KT 2SM -SN BR OVC020=

USA.gov is the U.S. government's official web portal to all federal, state and local government web resources and services.